Corsica, South Dakota
Current Conditions -  °F | °C
As of 5:53 AM on Friday 31 Oct 2014 (Local Time) from KMHE Reporting Station
Clear Clear  
Wind Chill:   Ceiling: Unl
Heat Index: 17°   Visibility: 10mi
Dew Point: 15°   Wind: 7mph
Humidity: 92%   Direction: 300°WNW
Pressure: 30.6"   Gusts: NA
Location:  43.43°N, 98.41°W
Report Text: KMHE 311053Z AUTO 30006KT 10SM CLR M08/M09 A3060 RMK AO2 SLP380 T10831094
Loading
Personal Weather Stations






























Interactive Weather Map
Tropical Storm Tracking
New forecast layout! Learn more

10-Day Weather Forecast

Advertisements
Track Severe Weather on mobile